Time;durP1;ratioP1;P1;durP2;ratioP2;P2;SDS_P1;SDS_P2;PMS_P1;PMS_P2;Temp;Humidity;BMP_temperature;BMP_pressure;BME280_temperature;BME280_humidity;BME280_pressure;Samples;Min_cycle;Max_cycle;Signal;HPM_P1;HPM_P2
2022/06/25 00:00:31;;;;;;;4.97;4.20;;;23.30;99.90;;;;;;6252335;22;20606;-90
2022/06/25 00:02:56;;;;;;;7.07;4.83;;;23.20;99.90;;;;;;6279507;22;20485;-90
2022/06/25 00:05:28;;;;;;;5.10;3.83;;;23.20;99.90;;;;;;6252399;22;20239;-90
2022/06/25 00:07:57;;;;;;;10.17;5.10;;;23.20;99.90;;;;;;6252264;22;20204;-90
2022/06/25 00:10:24;;;;;;;5.47;4.97;;;23.10;99.90;;;;;;6253209;22;20388;-90
2022/06/25 00:12:50;;;;;;;5.20;4.37;;;23.10;99.90;;;;;;6254226;22;20500;-90
2022/06/25 00:15:16;;;;;;;4.77;4.37;;;23.10;99.90;;;;;;6252792;22;20396;-90
2022/06/25 00:17:42;;;;;;;6.03;4.27;;;23.10;99.90;;;;;;6280749;22;20408;-91
2022/06/25 00:20:09;;;;;;;5.30;4.80;;;23.10;99.90;;;;;;6254221;22;20408;-93
2022/06/25 00:22:34;;;;;;;4.83;4.30;;;23.00;99.90;;;;;;6253703;22;20444;-91
2022/06/25 00:25:01;;;;;;;5.40;4.90;;;23.00;99.90;;;;;;6253326;22;20381;-90
2022/06/25 00:27:26;;;;;;;6.90;3.90;;;23.00;99.90;;;;;;6281534;22;20763;-93
2022/06/25 00:29:52;;;;;;;6.10;4.30;;;23.00;99.90;;;;;;6254249;22;20382;-90
2022/06/25 00:32:18;;;;;;;5.40;4.90;;;23.00;99.90;;;;;;6280915;22;20182;-90
2022/06/25 00:34:44;;;;;;;4.50;4.10;;;23.00;99.90;;;;;;6252845;22;20153;-93
2022/06/25 00:37:10;;;;;;;9.63;5.40;;;22.90;99.90;;;;;;6252115;22;20267;-93
2022/06/25 00:39:37;;;;;;;7.40;4.60;;;22.90;99.90;;;;;;6251975;22;20716;-93
2022/06/25 00:42:09;;;;;;;4.67;4.27;;;22.90;99.90;;;;;;6251837;22;20420;-91
2022/06/25 00:44:34;;;;;;;8.20;5.27;;;22.90;99.90;;;;;;6279154;22;20386;-90
2022/06/25 00:47:01;;;;;;;5.50;4.97;;;22.90;99.90;;;;;;6251130;22;20457;-93
2022/06/25 00:49:27;;;;;;;5.43;4.93;;;22.90;99.90;;;;;;6251762;22;20248;-90
2022/06/25 00:51:54;;;;;;;4.60;4.20;;;22.90;99.90;;;;;;6278490;22;20429;-93
2022/06/25 00:54:21;;;;;;;7.10;5.30;;;22.90;99.90;;;;;;6254456;22;20159;-90
2022/06/25 00:56:51;;;;;;;4.50;4.07;;;22.90;99.90;;;;;;6280099;22;20420;-93
2022/06/25 00:59:26;;;;;;;4.90;4.40;;;22.90;99.90;;;;;;6280649;22;20843;-90
2022/06/25 01:01:52;;;;;;;6.80;4.50;;;22.90;99.90;;;;;;6253291;22;20742;-90
2022/06/25 01:04:17;;;;;;;5.10;4.67;;;22.90;99.90;;;;;;6255083;22;20374;-91
2022/06/25 01:06:43;;;;;;;11.10;4.90;;;22.90;99.90;;;;;;6281168;22;20226;-90
2022/06/25 01:09:09;;;;;;;4.67;4.27;;;22.90;99.90;;;;;;6281518;22;20156;-90
2022/06/25 01:11:35;;;;;;;4.80;4.30;;;22.90;99.90;;;;;;6255671;22;20944;-93
2022/06/25 01:14:07;;;;;;;5.10;4.60;;;22.90;99.90;;;;;;6255371;22;20390;-93
2022/06/25 01:16:33;;;;;;;4.13;3.73;;;22.90;99.90;;;;;;6255301;22;20200;-93
2022/06/25 01:18:58;;;;;;;9.37;4.50;;;22.90;99.90;;;;;;6255918;22;20386;-89
2022/06/25 01:21:24;;;;;;;6.43;4.33;;;23.00;99.90;;;;;;6282547;22;20175;-90
2022/06/25 01:23:50;;;;;;;4.20;3.80;;;23.00;99.90;;;;;;6281722;22;20153;-93
2022/06/25 01:26:15;;;;;;;6.23;4.60;;;23.00;99.90;;;;;;6254968;22;20212;-92
2022/06/25 01:28:41;;;;;;;5.73;4.63;;;23.00;99.90;;;;;;6255096;22;20215;-91
2022/06/25 01:31:07;;;;;;;5.33;4.37;;;23.00;99.90;;;;;;6281426;22;20149;-92
2022/06/25 01:33:33;;;;;;;6.00;5.40;;;23.00;99.90;;;;;;6281612;22;20160;-94
2022/06/25 01:35:58;;;;;;;5.10;3.80;;;23.00;99.90;;;;;;6253734;22;20385;-91
2022/06/25 01:38:24;;;;;;;6.30;4.63;;;23.00;99.90;;;;;;6254924;22;20184;-90
2022/06/25 01:40:50;;;;;;;5.10;4.70;;;23.00;99.90;;;;;;6254873;22;20182;-90
2022/06/25 01:43:15;;;;;;;5.20;4.70;;;23.00;99.90;;;;;;6281442;22;20165;-90
2022/06/25 01:45:41;;;;;;;4.83;4.33;;;23.00;99.90;;;;;;6281562;22;20381;-92
2022/06/25 01:48:07;;;;;;;6.03;4.73;;;23.00;99.90;;;;;;6266153;22;20200;-90
2022/06/25 01:50:35;;;;;;;5.20;4.70;;;23.00;99.90;;;;;;6251186;22;20475;-90
2022/06/25 01:53:00;;;;;;;5.63;4.30;;;23.00;99.90;;;;;;6251366;22;20894;-90
2022/06/25 01:55:26;;;;;;;4.77;4.30;;;23.00;99.90;;;;;;6251189;22;20380;-93
2022/06/25 01:57:52;;;;;;;5.50;5.00;;;23.00;99.90;;;;;;6251330;22;20219;-93
2022/06/25 02:00:23;;;;;;;5.13;4.50;;;22.90;99.90;;;;;;6278048;22;20151;-90
2022/06/25 02:02:49;;;;;;;7.60;4.97;;;22.90;99.90;;;;;;6251101;22;20477;-90
2022/06/25 02:05:17;;;;;;;4.63;4.23;;;22.90;99.90;;;;;;6251577;22;20413;-94
2022/06/25 02:07:44;;;;;;;5.50;4.50;;;22.90;99.90;;;;;;6278320;22;20452;-91
2022/06/25 02:10:10;;;;;;;5.80;5.20;;;22.80;99.90;;;;;;6251899;22;20385;-90
2022/06/25 02:12:36;;;;;;;4.40;4.00;;;22.80;99.90;;;;;;6253256;22;20436;-90
2022/06/25 02:15:03;;;;;;;5.77;5.10;;;22.70;99.90;;;;;;6253044;22;20389;-93
2022/06/25 02:17:29;;;;;;;6.10;5.13;;;22.70;99.90;;;;;;6253307;22;20861;-90
2022/06/25 02:19:54;;;;;;;6.30;5.70;;;22.60;99.90;;;;;;6279950;22;20365;-93
2022/06/25 02:22:20;;;;;;;5.90;5.30;;;22.60;99.90;;;;;;6253561;22;20174;-93
2022/06/25 02:24:46;;;;;;;6.47;5.87;;;22.50;99.90;;;;;;6253525;22;20159;-93
2022/06/25 02:27:11;;;;;;;8.60;5.63;;;22.30;99.90;;;;;;6254110;22;20211;-93
2022/06/25 02:29:37;;;;;;;7.00;6.00;;;22.20;99.90;;;;;;6281162;22;20481;-90
2022/06/25 02:32:04;;;;;;;6.37;5.23;;;22.10;99.90;;;;;;6254227;22;20181;-93
2022/06/25 02:34:30;;;;;;;6.37;5.70;;;22.00;99.90;;;;;;6254448;22;20233;-93
2022/06/25 02:36:56;;;;;;;7.83;4.87;;;21.90;99.90;;;;;;6254912;22;20425;-90
2022/06/25 02:39:21;;;;;;;7.47;4.77;;;21.90;99.90;;;;;;6254458;22;20156;-89
2022/06/25 02:41:47;;;;;;;6.70;5.03;;;21.90;99.90;;;;;;6254083;22;20462;-89
2022/06/25 02:44:13;;;;;;;6.00;5.33;;;21.90;99.90;;;;;;6254464;22;20152;-90
2022/06/25 02:46:38;;;;;;;8.37;6.07;;;21.90;99.90;;;;;;6255490;22;20196;-88
2022/06/25 02:49:04;;;;;;;6.83;6.13;;;21.90;99.90;;;;;;6287146;22;20279;-92
2022/06/25 02:51:30;;;;;;;7.07;6.40;;;22.00;99.90;;;;;;6256917;22;20177;-90
2022/06/25 02:53:56;;;;;;;6.73;6.10;;;22.00;99.90;;;;;;6255001;22;20187;-94
2022/06/25 02:59:06;;;;;;;5.77;5.10;;;22.10;99.90;;;;;;6282965;22;20152;-90
2022/06/25 03:01:32;;;;;;;6.60;6.00;;;22.10;99.90;;;;;;6283251;22;20712;-93
2022/06/25 03:03:58;;;;;;;7.20;5.90;;;22.10;99.90;;;;;;6260232;22;20155;-90
2022/06/25 03:06:24;;;;;;;8.87;5.67;;;22.10;99.90;;;;;;6253519;22;20513;-91
2022/06/25 03:08:50;;;;;;;6.60;5.50;;;22.10;99.90;;;;;;6252233;22;20432;-90
2022/06/25 03:11:17;;;;;;;5.80;5.17;;;22.10;99.90;;;;;;6252695;22;20389;-94
2022/06/25 03:13:42;;;;;;;6.30;5.13;;;22.10;99.90;;;;;;6279981;22;20420;-92
2022/06/25 03:16:09;;;;;;;6.47;5.30;;;22.10;99.90;;;;;;6279456;22;20374;-90
2022/06/25 03:18:36;;;;;;;5.57;4.80;;;22.10;99.90;;;;;;6252681;22;20392;-93
2022/06/25 03:21:02;;;;;;;8.07;5.73;;;22.10;99.90;;;;;;6280085;22;20378;-90
2022/06/25 03:23:28;;;;;;;6.73;6.00;;;22.10;99.90;;;;;;6253234;22;20411;-90
2022/06/25 03:25:54;;;;;;;6.40;5.80;;;22.10;99.90;;;;;;6253331;22;20369;-90
2022/06/25 03:28:19;;;;;;;7.73;5.73;;;22.20;99.90;;;;;;6253464;22;20577;-90
2022/06/25 03:30:45;;;;;;;6.00;5.40;;;22.20;99.90;;;;;;6282102;22;20153;-91
2022/06/25 03:33:12;;;;;;;8.47;5.63;;;22.20;99.90;;;;;;6261574;22;20228;-90
2022/06/25 03:35:38;;;;;;;6.30;5.70;;;22.20;99.90;;;;;;6255794;22;20878;-89
2022/06/25 03:38:04;;;;;;;8.90;6.07;;;22.20;99.90;;;;;;6284010;22;20418;-91
2022/06/25 03:40:29;;;;;;;6.03;5.33;;;22.20;99.90;;;;;;6255532;22;20384;-90
2022/06/25 03:42:55;;;;;;;6.90;5.43;;;22.20;99.90;;;;;;6253655;22;20416;-92
2022/06/25 03:45:21;;;;;;;6.60;5.80;;;22.20;99.90;;;;;;6254452;22;20186;-90
2022/06/25 03:47:52;;;;;;;5.63;5.13;;;22.30;99.90;;;;;;6280028;22;20200;-93
2022/06/25 03:50:20;;;;;;;15.00;5.87;;;22.30;99.90;;;;;;6253941;22;20191;-93
2022/06/25 03:52:47;;;;;;;6.00;5.40;;;22.20;99.90;;;;;;6254387;22;20421;-90
2022/06/25 03:55:13;;;;;;;5.97;5.40;;;22.30;99.90;;;;;;6281381;22;20370;-90
2022/06/25 03:57:39;;;;;;;7.30;6.10;;;22.30;99.90;;;;;;6253102;22;20425;-90
2022/06/25 04:00:07;;;;;;;6.60;6.00;;;22.30;99.90;;;;;;6280346;22;20372;-93
2022/06/25 04:02:33;;;;;;;5.20;4.80;;;22.20;99.90;;;;;;6255798;22;20421;-90
2022/06/25 04:04:59;;;;;;;6.27;4.87;;;22.20;99.90;;;;;;6265500;22;20810;-93
2022/06/25 04:07:24;;;;;;;8.90;5.77;;;22.20;99.90;;;;;;6252712;22;20552;-93
2022/06/25 04:09:50;;;;;;;6.27;5.67;;;22.20;99.90;;;;;;6253397;22;20801;-90
2022/06/25 04:12:16;;;;;;;6.43;4.90;;;22.20;99.90;;;;;;6280669;22;20255;-93
2022/06/25 04:14:41;;;;;;;7.00;6.30;;;22.20;99.90;;;;;;6253704;22;20165;-90
2022/06/25 04:17:07;;;;;;;7.20;6.33;;;22.30;99.90;;;;;;6254593;22;20184;-90
2022/06/25 04:19:40;;;;;;;8.37;5.80;;;22.30;99.90;;;;;;6254494;22;20533;-89
2022/06/25 04:22:10;;;;;;;6.40;5.20;;;22.30;99.90;;;;;;6254110;22;20470;-90
2022/06/25 04:24:37;;;;;;;5.67;5.17;;;22.30;99.90;;;;;;6256681;22;20443;-90
2022/06/25 04:27:04;;;;;;;5.70;5.13;;;22.30;99.90;;;;;;6255120;22;20447;-90
2022/06/25 04:29:30;;;;;;;6.77;5.43;;;22.30;99.90;;;;;;6255764;22;20409;-93
2022/06/25 04:31:57;;;;;;;6.57;5.27;;;22.30;99.90;;;;;;6255792;22;20761;-93
2022/06/25 04:34:23;;;;;;;5.77;5.23;;;22.40;99.90;;;;;;6256861;22;20378;-90
2022/06/25 04:36:49;;;;;;;6.60;5.60;;;22.40;99.90;;;;;;6263693;22;20487;-89
2022/06/25 04:39:14;;;;;;;5.93;5.33;;;22.40;99.90;;;;;;6251597;22;20457;-93
2022/06/25 04:41:40;;;;;;;7.03;5.80;;;22.40;99.90;;;;;;6278916;22;20177;-89
2022/06/25 04:44:06;;;;;;;6.60;5.80;;;22.40;99.90;;;;;;6254939;22;20156;-90
2022/06/25 04:46:32;;;;;;;6.70;5.93;;;22.50;99.90;;;;;;6251572;22;20177;-94
2022/06/25 04:48:58;;;;;;;6.47;5.80;;;22.50;99.90;;;;;;6254330;22;20204;-92
2022/06/25 04:51:25;;;;;;;7.20;6.50;;;22.60;99.90;;;;;;6259493;22;20583;-92
2022/06/25 04:53:57;;;;;;;7.53;5.20;;;22.60;99.90;;;;;;6254617;22;20417;-93
2022/06/25 04:56:27;;;;;;;6.77;5.70;;;22.60;99.90;;;;;;6254427;22;20377;-93
2022/06/25 04:58:53;;;;;;;6.50;5.90;;;22.60;99.90;;;;;;6281211;22;20401;-93
2022/06/25 05:01:19;;;;;;;7.77;6.47;;;22.60;99.90;;;;;;6254348;22;20736;-94
2022/06/25 05:03:45;;;;;;;6.83;5.63;;;22.60;99.90;;;;;;6254896;22;20452;-94
2022/06/25 05:06:11;;;;;;;5.33;4.80;;;22.60;99.90;;;;;;6268686;22;20381;-90
2022/06/25 05:08:37;;;;;;;7.30;6.60;;;22.60;99.90;;;;;;6259011;22;20206;-93
2022/06/25 05:11:02;;;;;;;7.70;6.10;;;22.60;99.90;;;;;;6278706;22;20410;-91
2022/06/25 05:13:29;;;;;;;8.93;5.80;;;22.60;99.90;;;;;;6251284;22;20190;-94
2022/06/25 05:15:55;;;;;;;19.60;6.13;;;22.60;99.90;;;;;;6251454;22;20162;-94
2022/06/25 05:18:21;;;;;;;6.73;5.87;;;22.70;99.90;;;;;;6251847;22;20413;-90
2022/06/25 05:20:47;;;;;;;6.00;5.43;;;22.70;99.90;;;;;;6252835;22;20370;-92
2022/06/25 05:23:13;;;;;;;5.73;5.00;;;22.70;99.90;;;;;;6280064;22;20192;-90
2022/06/25 05:25:39;;;;;;;5.67;5.10;;;22.70;99.90;;;;;;6252249;22;20156;-93
2022/06/25 05:28:06;;;;;;;5.50;4.87;;;22.70;99.90;;;;;;6253590;22;20453;-93
2022/06/25 05:30:32;;;;;;;5.80;5.20;;;22.80;99.90;;;;;;6253921;22;20377;-93
2022/06/25 05:32:58;;;;;;;7.20;5.17;;;22.90;99.90;;;;;;6253828;22;20467;-90
2022/06/25 05:35:24;;;;;;;5.63;5.13;;;23.00;99.90;;;;;;6253859;22;20377;-93
2022/06/25 05:37:50;;;;;;;6.07;5.33;;;23.00;99.90;;;;;;6253697;22;20405;-92
2022/06/25 05:40:16;;;;;;;5.17;4.67;;;23.10;99.90;;;;;;6258752;22;20453;-92
2022/06/25 05:42:42;;;;;;;7.03;6.43;;;23.20;99.90;;;;;;6268912;22;20211;-92
2022/06/25 05:45:08;;;;;;;5.70;5.10;;;23.30;99.90;;;;;;6269040;22;20149;-93
2022/06/25 05:47:33;;;;;;;6.30;5.40;;;23.40;99.90;;;;;;6254253;22;20535;-90
2022/06/25 05:49:59;;;;;;;6.07;5.50;;;23.40;99.90;;;;;;6262721;22;20384;-92
2022/06/25 05:52:25;;;;;;;5.53;5.03;;;23.50;99.90;;;;;;6255875;22;20212;-88
2022/06/25 05:54:51;;;;;;;5.10;4.33;;;23.60;99.90;;;;;;6256241;22;20183;-90
2022/06/25 05:57:16;;;;;;;6.20;5.60;;;23.70;99.90;;;;;;6280076;22;20473;-90
2022/06/25 05:59:42;;;;;;;6.20;5.60;;;23.80;99.90;;;;;;6281151;22;20144;-90
2022/06/25 06:02:08;;;;;;;5.70;5.20;;;23.80;99.90;;;;;;6253875;22;20271;-94
2022/06/25 06:04:34;;;;;;;6.43;5.23;;;23.90;99.90;;;;;;6253767;22;20163;-93
2022/06/25 06:07:00;;;;;;;5.23;4.73;;;24.00;99.90;;;;;;6254275;22;20430;-94
2022/06/25 06:09:31;;;;;;;5.57;5.07;;;24.10;99.90;;;;;;6254694;22;20158;-92
2022/06/25 06:11:57;;;;;;;5.93;5.33;;;24.10;99.90;;;;;;6255318;22;20436;-90
2022/06/25 06:14:23;;;;;;;5.70;5.17;;;24.20;99.90;;;;;;6282162;22;20405;-93
2022/06/25 06:16:48;;;;;;;5.87;4.70;;;24.40;99.90;;;;;;6255643;22;20193;-93
2022/06/25 06:19:14;;;;;;;5.10;4.60;;;24.50;99.90;;;;;;6254908;22;20157;-94
2022/06/25 06:21:40;;;;;;;5.90;5.00;;;24.60;99.90;;;;;;6255610;22;20182;-90
2022/06/25 06:24:06;;;;;;;5.53;5.10;;;24.70;99.90;;;;;;6282592;22;20148;-90
2022/06/25 06:26:33;;;;;;;5.97;5.37;;;24.80;99.90;;;;;;6281730;22;20482;-89
2022/06/25 06:28:58;;;;;;;5.90;5.37;;;24.80;99.90;;;;;;6269122;22;20436;-93
2022/06/25 06:31:24;;;;;;;5.30;4.80;;;25.00;99.90;;;;;;6251310;22;20419;-93
2022/06/25 06:33:50;;;;;;;4.90;4.50;;;25.00;99.90;;;;;;6252241;22;20160;-93
2022/06/25 06:36:15;;;;;;;6.30;5.27;;;25.10;99.90;;;;;;6250068;22;20166;-93
2022/06/25 06:38:41;;;;;;;6.40;4.83;;;25.20;99.90;;;;;;6250343;22;20250;-91
2022/06/25 06:41:07;;;;;;;5.57;5.07;;;25.30;99.90;;;;;;6251567;22;20165;-90
2022/06/25 06:43:32;;;;;;;4.70;4.30;;;25.40;99.90;;;;;;6279071;22;20195;-90
2022/06/25 06:45:58;;;;;;;5.47;4.97;;;25.50;99.90;;;;;;6251827;22;20170;-93
2022/06/25 06:48:24;;;;;;;4.53;4.13;;;25.60;99.90;;;;;;6252997;22;20318;-94
2022/06/25 06:50:50;;;;;;;7.63;5.10;;;25.70;99.90;;;;;;6253110;22;20167;-93
2022/06/25 06:53:15;;;;;;;6.03;5.37;;;25.80;99.90;;;;;;6255108;22;20189;-91
2022/06/25 06:55:41;;;;;;;6.47;5.87;;;25.90;99.90;;;;;;6255281;22;20148;-95
2022/06/25 06:58:06;;;;;;;6.70;5.50;;;25.90;99.90;;;;;;6254069;22;20263;-92
2022/06/25 07:00:32;;;;;;;6.07;5.20;;;26.00;99.90;;;;;;6263006;22;20211;-90
2022/06/25 07:02:58;;;;;;;5.77;4.87;;;26.10;99.90;;;;;;6252333;22;20179;-93
2022/06/25 07:05:24;;;;;;;6.90;5.47;;;26.20;99.90;;;;;;6253174;22;20160;-93
2022/06/25 07:07:49;;;;;;;6.10;5.30;;;26.30;99.90;;;;;;6252493;22;20200;-90
2022/06/25 07:10:15;;;;;;;5.17;4.70;;;26.40;99.90;;;;;;6253123;22;20157;-90
2022/06/25 07:12:41;;;;;;;8.50;5.43;;;26.40;99.90;;;;;;6251974;22;20668;-90
2022/06/25 07:15:07;;;;;;;4.93;4.43;;;26.50;99.90;;;;;;6254271;22;20160;-93
2022/06/25 07:17:32;;;;;;;5.70;4.43;;;26.60;99.90;;;;;;6255899;22;20216;-89
2022/06/25 07:19:58;;;;;;;5.23;4.73;;;26.60;99.90;;;;;;6255541;22;20393;-90
2022/06/25 07:22:24;;;;;;;5.50;5.00;;;26.70;99.90;;;;;;6256266;22;20186;-90
2022/06/25 07:24:53;;;;;;;5.47;4.50;;;26.80;99.90;;;;;;6256720;22;20211;-89
2022/06/25 07:27:19;;;;;;;5.63;5.00;;;26.90;99.90;;;;;;6252134;22;20473;-91
2022/06/25 07:29:45;;;;;;;4.70;4.10;;;27.00;99.90;;;;;;6252062;22;20861;-92
2022/06/25 07:32:11;;;;;;;5.90;4.50;;;27.10;99.90;;;;;;6252175;22;20173;-91
2022/06/25 07:34:38;;;;;;;5.13;4.53;;;27.10;99.90;;;;;;6251950;22;20388;-94
2022/06/25 07:37:04;;;;;;;5.13;4.67;;;27.20;99.90;;;;;;6257912;22;20176;-92
2022/06/25 07:39:30;;;;;;;5.60;5.13;;;27.30;99.90;;;;;;6256790;22;20386;-92
2022/06/25 07:41:56;;;;;;;5.00;4.40;;;27.40;99.90;;;;;;6269320;22;20413;-91
2022/06/25 07:44:21;;;;;;;4.53;4.13;;;27.40;99.90;;;;;;6252605;22;20397;-90
2022/06/25 07:46:47;;;;;;;9.13;5.00;;;27.50;99.90;;;;;;6251604;22;20187;-93
2022/06/25 07:49:13;;;;;;;7.80;5.10;;;27.50;99.90;;;;;;6251181;22;20469;-93
2022/06/25 07:51:59;;;;;;;6.97;4.33;;;27.60;99.90;;;;;;6253942;22;20187;-91
2022/06/25 07:54:27;;;;;;;4.57;4.20;;;27.70;99.40;;;;;;6251580;22;20920;-88
2022/06/25 07:56:53;;;;;;;4.87;4.47;;;27.70;99.80;;;;;;6254273;22;20422;-88
2022/06/25 07:59:19;;;;;;;4.70;4.30;;;27.80;99.30;;;;;;6256438;22;20373;-87
2022/06/25 08:01:45;;;;;;;4.67;4.27;;;27.90;98.70;;;;;;6279741;22;20914;-93
2022/06/25 08:04:11;;;;;;;4.60;4.20;;;27.90;98.80;;;;;;6253332;22;20157;-91
2022/06/25 08:06:38;;;;;;;5.20;4.00;;;28.00;98.90;;;;;;6281251;22;20173;-93
2022/06/25 08:09:04;;;;;;;5.60;5.10;;;28.00;98.70;;;;;;6262763;22;20193;-92
2022/06/25 08:11:31;;;;;;;5.27;4.77;;;28.10;99.10;;;;;;6278840;22;20497;-87
2022/06/25 08:13:57;;;;;;;5.90;4.17;;;28.20;99.10;;;;;;6251449;22;20866;-87
2022/06/25 08:16:25;;;;;;;5.63;4.23;;;28.20;99.00;;;;;;6278715;22;20365;-87
2022/06/25 08:18:51;;;;;;;5.17;4.67;;;28.30;98.80;;;;;;6254922;22;20381;-87
2022/06/25 08:21:17;;;;;;;5.20;4.67;;;28.40;99.00;;;;;;6253259;22;20456;-87
2022/06/25 08:23:43;;;;;;;5.37;4.73;;;28.50;98.40;;;;;;6251377;22;20386;-87
2022/06/25 08:26:08;;;;;;;6.77;5.40;;;28.50;97.90;;;;;;6251440;22;20377;-88
2022/06/25 08:28:34;;;;;;;6.50;4.40;;;28.60;98.10;;;;;;6253978;22;20197;-87
2022/06/25 08:31:00;;;;;;;4.50;4.20;;;28.70;98.40;;;;;;6285436;22;20284;-88
2022/06/25 08:33:26;;;;;;;4.97;4.57;;;28.80;98.20;;;;;;6277903;22;20185;-88
2022/06/25 08:35:51;;;;;;;5.23;4.77;;;28.80;98.20;;;;;;6277578;22;20156;-88
2022/06/25 08:38:17;;;;;;;5.20;4.70;;;28.80;97.70;;;;;;6278393;22;20205;-88
2022/06/25 08:40:42;;;;;;;5.17;4.57;;;28.90;98.10;;;;;;6252794;22;20170;-87
2022/06/25 08:43:08;;;;;;;5.00;4.60;;;29.00;98.40;;;;;;6253995;22;20196;-87
2022/06/25 08:45:34;;;;;;;5.30;4.80;;;29.00;97.60;;;;;;6255306;22;20493;-87
2022/06/25 08:48:01;;;;;;;5.90;5.03;;;29.10;97.70;;;;;;6276922;22;20281;-88
2022/06/25 08:50:26;;;;;;;5.10;4.60;;;29.20;97.70;;;;;;6278127;22;20568;-90
2022/06/25 08:52:54;;;;;;;4.93;4.53;;;29.20;97.20;;;;;;6280015;22;20410;-87
2022/06/25 08:55:38;;;;;;;6.37;4.50;;;29.30;96.80;;;;;;6281102;22;20213;-90
2022/06/25 08:58:06;;;;;;;6.23;5.00;;;29.30;96.60;;;;;;6253874;22;20427;-92
2022/06/25 09:00:34;;;;;;;5.30;4.80;;;29.30;96.90;;;;;;6254140;22;20404;-91
2022/06/25 09:03:01;;;;;;;5.10;4.60;;;29.30;96.50;;;;;;6278327;22;20438;-92
2022/06/25 09:05:35;;;;;;;6.83;4.77;;;29.40;96.50;;;;;;6252377;22;20760;-91
2022/06/25 09:08:05;;;;;;;4.53;4.13;;;29.40;97.00;;;;;;6280111;22;20451;-88
2022/06/25 09:10:31;;;;;;;4.47;4.00;;;29.50;95.60;;;;;;6289323;22;20379;-90
2022/06/25 09:12:59;;;;;;;6.40;5.50;;;29.50;95.60;;;;;;6251078;22;20419;-88
2022/06/25 09:15:28;;;;;;;4.70;4.27;;;29.50;95.70;;;;;;6249846;22;20383;-91
2022/06/25 09:17:54;;;;;;;5.50;4.33;;;29.60;95.60;;;;;;6251526;22;20427;-87
2022/06/25 09:20:21;;;;;;;4.80;4.40;;;29.60;95.70;;;;;;6252076;22;20892;-87
2022/06/25 09:22:59;;;;;;;6.73;4.60;;;29.70;95.90;;;;;;6280928;22;20464;-87
2022/06/25 09:25:27;;;;;;;4.43;4.10;;;29.70;95.40;;;;;;6267697;22;20390;-92
2022/06/25 09:27:53;;;;;;;4.60;4.30;;;29.80;95.30;;;;;;6250401;22;20936;-92
2022/06/25 09:30:20;;;;;;;5.60;4.50;;;29.80;95.40;;;;;;6250537;22;20431;-91
2022/06/25 09:32:56;;;;;;;4.63;3.93;;;29.90;95.20;;;;;;6251878;22;20418;-92
2022/06/25 09:35:36;;;;;;;5.10;3.70;;;30.00;94.30;;;;;;6253791;22;20475;-88
2022/06/25 09:38:05;;;;;;;6.00;3.90;;;30.00;94.50;;;;;;6253936;22;20503;-92
2022/06/25 09:40:31;;;;;;;5.87;3.90;;;30.10;94.40;;;;;;6254160;22;20404;-89
2022/06/25 09:42:57;;;;;;;5.13;4.00;;;30.10;94.30;;;;;;6261083;22;20429;-91
2022/06/25 09:45:23;;;;;;;4.30;3.83;;;30.20;94.10;;;;;;6250824;22;20389;-91
2022/06/25 09:47:49;;;;;;;6.23;3.83;;;30.20;94.40;;;;;;6250370;22;20490;-88
2022/06/25 09:50:19;;;;;;;4.50;4.13;;;30.30;93.80;;;;;;6250918;22;20383;-92
2022/06/25 09:52:56;;;;;;;5.00;4.20;;;30.30;93.60;;;;;;6250259;22;20237;-92
2022/06/25 09:55:26;;;;;;;4.37;4.03;;;30.40;93.80;;;;;;6253022;22;20384;-91
2022/06/25 09:57:52;;;;;;;4.93;4.57;;;30.40;93.80;;;;;;6280846;22;20410;-88
2022/06/25 10:00:19;;;;;;;6.47;4.20;;;30.50;93.40;;;;;;6254276;22;20712;-88
2022/06/25 10:02:50;;;;;;;4.83;3.90;;;30.50;93.30;;;;;;6281179;22;20406;-92
2022/06/25 10:05:26;;;;;;;3.60;3.30;;;30.50;93.40;;;;;;6259581;22;20724;-88
2022/06/25 10:08:01;;;;;;;6.30;4.57;;;30.50;93.30;;;;;;6250518;22;20447;-86
2022/06/25 10:10:31;;;;;;;4.63;3.77;;;30.50;93.30;;;;;;6277723;22;20387;-91
2022/06/25 10:12:57;;;;;;;3.60;3.30;;;30.60;93.40;;;;;;6250989;22;20415;-90
2022/06/25 10:15:23;;;;;;;4.30;3.90;;;30.70;93.90;;;;;;6251365;22;20856;-87
2022/06/25 10:17:51;;;;;;;3.63;3.37;;;30.70;93.60;;;;;;6279469;22;20949;-87
2022/06/25 10:20:18;;;;;;;3.70;3.37;;;30.90;93.40;;;;;;6280331;22;20368;-91
2022/06/25 10:22:46;;;;;;;3.57;3.27;;;30.90;93.20;;;;;;6279724;22;20783;-87
2022/06/25 10:25:14;;;;;;;4.10;3.80;;;30.90;93.20;;;;;;6254753;22;20713;-88
2022/06/25 10:27:41;;;;;;;5.40;4.13;;;30.80;93.40;;;;;;6261994;22;20474;-91
2022/06/25 10:30:08;;;;;;;3.67;3.37;;;30.80;93.10;;;;;;6253461;22;20369;-87
2022/06/25 10:32:42;;;;;;;5.33;3.80;;;30.70;92.70;;;;;;6251541;22;20436;-89
2022/06/25 10:35:08;;;;;;;4.47;3.70;;;30.60;92.70;;;;;;6255082;22;20772;-90
2022/06/25 10:43:59;;;;;;;6.57;5.07;;;30.30;93.10;;;;;;5070747;28;20475;-68
2022/06/25 10:53:43;;;;;;;6.50;3.57;;;27.50;99.90;;;;;;5153000;22;20584;-67
2022/06/25 10:56:14;;;;;;;3.83;1.83;;;25.90;99.90;;;;;;5112841;28;20416;-68
2022/06/25 10:58:46;;;;;;;3.80;1.90;;;25.00;99.90;;;;;;5130932;28;20421;-67
2022/06/25 11:01:26;;;;;;;3.53;1.60;;;24.60;99.90;;;;;;5130677;28;20421;-68
2022/06/25 11:04:00;;;;;;;2.23;1.40;;;24.20;99.90;;;;;;5114562;28;20772;-68
2022/06/25 11:06:30;;;;;;;1.73;1.37;;;23.90;99.90;;;;;;5132026;27;20417;-68
2022/06/25 11:09:07;;;;;;;2.20;1.40;;;23.70;99.90;;;;;;5130879;28;20469;-68
2022/06/25 11:11:38;;;;;;;2.23;1.30;;;23.60;99.90;;;;;;5131000;28;20447;-68
2022/06/25 11:14:18;;;;;;;1.30;1.20;;;23.60;99.90;;;;;;5130182;28;20432;-68
2022/06/25 11:16:45;;;;;;;2.60;1.40;;;23.50;99.90;;;;;;5131470;27;20468;-69
2022/06/25 11:19:16;;;;;;;2.53;1.63;;;23.40;99.90;;;;;;5130422;28;20755;-68
2022/06/25 11:21:50;;;;;;;3.17;2.37;;;23.40;99.90;;;;;;5129593;28;20786;-67
2022/06/25 11:24:24;;;;;;;3.33;2.70;;;23.30;99.90;;;;;;5130367;28;20426;-68
2022/06/25 11:29:55;;;;;;;3.50;3.23;;;23.40;99.90;;;;;;5131204;28;20830;-68
2022/06/25 11:32:26;;;;;;;3.90;3.50;;;23.50;99.90;;;;;;5130407;28;20462;-68
2022/06/25 11:34:59;;;;;;;4.30;2.70;;;23.50;99.90;;;;;;5130097;28;20430;-67
2022/06/25 11:37:30;;;;;;;2.63;2.43;;;23.50;99.90;;;;;;5127786;27;21118;-68
2022/06/25 11:39:58;;;;;;;2.20;2.00;;;23.60;99.90;;;;;;5125521;27;20432;-68
2022/06/25 11:42:24;;;;;;;2.20;2.03;;;23.70;99.90;;;;;;5124501;28;20456;-67
2022/06/25 11:44:53;;;;;;;3.47;1.97;;;23.80;99.90;;;;;;5124673;28;20409;-68
2022/06/25 11:47:27;;;;;;;2.43;2.23;;;24.00;99.90;;;;;;5107309;28;20448;-67
2022/06/25 11:49:55;;;;;;;1.83;1.73;;;24.10;99.90;;;;;;5124472;28;20466;-67
2022/06/25 11:52:24;;;;;;;1.60;1.50;;;24.30;99.90;;;;;;5124595;28;20512;-67
2022/06/25 11:55:03;;;;;;;3.33;2.13;;;24.40;99.90;;;;;;5125712;28;20450;-68
2022/06/25 11:57:39;;;;;;;4.20;2.13;;;24.50;99.90;;;;;;5107816;28;20456;-68
2022/06/25 12:00:09;;;;;;;1.70;1.60;;;24.70;99.90;;;;;;5121612;28;20419;-68
2022/06/25 12:02:36;;;;;;;2.63;2.43;;;24.90;99.90;;;;;;5093500;28;20688;-68
2022/06/25 12:05:06;;;;;;;4.90;2.40;;;25.00;99.90;;;;;;5111415;28;20403;-68
2022/06/25 12:07:36;;;;;;;2.20;2.00;;;25.10;99.90;;;;;;5111294;28;20454;-68
2022/06/25 12:10:12;;;;;;;5.43;2.60;;;25.30;99.90;;;;;;5111263;28;20467;-68
2022/06/25 12:12:43;;;;;;;4.10;2.50;;;25.40;99.90;;;;;;5112107;28;20805;-68
2022/06/25 12:15:17;;;;;;;6.20;3.30;;;25.50;99.90;;;;;;5112343;28;20511;-68
2022/06/25 12:17:46;;;;;;;3.30;3.00;;;25.70;99.90;;;;;;5112202;28;20444;-68
2022/06/25 12:20:15;;;;;;;3.47;2.50;;;25.80;99.90;;;;;;5112692;28;20417;-68
2022/06/25 12:22:50;;;;;;;5.13;2.00;;;26.00;99.90;;;;;;5095203;28;20456;-68
2022/06/25 12:25:31;;;;;;;2.40;2.20;;;26.10;99.90;;;;;;5114930;27;20438;-68
2022/06/25 12:27:57;;;;;;;4.50;2.47;;;26.20;99.90;;;;;;5115325;28;20450;-68
2022/06/25 12:30:30;;;;;;;3.83;2.20;;;26.30;99.90;;;;;;5115308;28;20468;-68
2022/06/25 12:33:14;;;;;;;3.27;2.50;;;26.40;99.90;;;;;;5115672;28;20714;-68
2022/06/25 12:35:45;;;;;;;4.13;2.70;;;26.50;99.90;;;;;;5115156;27;20460;-68
2022/06/25 12:38:15;;;;;;;4.07;3.20;;;26.60;99.90;;;;;;5115272;28;20456;-68
2022/06/25 12:40:56;;;;;;;4.00;3.60;;;26.70;99.90;;;;;;5109322;28;20441;-68
2022/06/25 12:43:22;;;;;;;6.40;4.07;;;26.80;99.90;;;;;;5094071;28;20917;-68
2022/06/25 12:45:50;;;;;;;5.13;4.23;;;26.90;99.90;;;;;;5094970;28;20465;-68
2022/06/25 12:48:30;;;;;;;5.97;4.77;;;26.90;99.90;;;;;;5094618;28;20216;-68
2022/06/25 12:51:17;;;;;;;4.07;3.67;;;27.00;99.90;;;;;;5094470;28;20404;-68
2022/06/25 12:53:48;;;;;;;3.50;3.20;;;27.10;99.90;;;;;;5093831;28;20833;-69
2022/06/25 12:56:15;;;;;;;8.93;3.40;;;27.20;99.90;;;;;;5093817;28;21025;-68
2022/06/25 12:58:43;;;;;;;4.00;3.60;;;27.20;99.90;;;;;;5092261;28;20500;-68
2022/06/25 13:01:19;;;;;;;3.90;3.40;;;27.30;99.90;;;;;;5093361;28;20393;-68
2022/06/25 13:03:46;;;;;;;4.17;3.20;;;27.30;99.90;;;;;;5092070;28;20416;-68
2022/06/25 13:06:13;;;;;;;3.80;3.10;;;27.30;99.90;;;;;;5092268;28;20428;-68